Flight Track Log - Related Links

Times and Time Zones

All times are in EDT time to prevent confusion due to time zone crossing. See the VH-MZV flight status page for this flight to view local times or setup timezone preferences in your user account.

Time Position Orientation Groundspeed Altitude Reporting Facility
EDT Latitude Longitude Course Direction KTS MPH feet Rate Location/Type
Mon 04:32:04 AM -35.2750 149.1966 19° North 111 128 2,900  Level Aus ATC (RADAR)
Mon 04:32:29 AM -35.2618 149.2022 19° North 122 140 3,200 800 Climbing Aus ATC (RADAR)
Mon 04:33:04 AM -35.2472 149.2189 43° Northeast 125 144 3,700 695 Climbing Aus ATC (RADAR)
Mon 04:34:04 AM -35.2219 149.2540 49° Northeast 142 163 4,300 635 Climbing Aus ATC (RADAR)
Mon 04:34:29 AM -35.2101 149.2708 49° Northeast 152 175 4,600 923 Climbing Aus ATC (RADAR)
Mon 04:35:09 AM -35.1921 149.2974 50° Northeast 152 175 5,300 776 Climbing Aus ATC (RADAR)
Mon 04:35:54 AM -35.1682 149.3216 40° Northeast 150 173 5,700 532 Climbing Aus ATC (RADAR)
Mon 04:36:28 AM -35.1496 149.3419 42° Northeast 152 175 6,000 684 Climbing Aus ATC (RADAR)
Mon 04:37:13 AM -35.1272 149.3677 43° Northeast 147 169 6,600 686 Climbing Aus ATC (RADAR)
Mon 04:37:38 AM -35.1148 149.3837 46° Northeast 152 175 6,800 400 Climbing Aus ATC (RADAR)
Mon 04:38:13 AM -35.0971 149.4051 45° Northeast 154 177 7,000 67 Climbing Aus ATC (RADAR)
Mon 04:39:08 AM -35.0656 149.4423 44° Northeast 174 200 6,900 -60 Descending Aus ATC (RADAR)
Mon 04:39:53 AM -35.0390 149.4732 44° Northeast 175 201 6,900  Level Aus ATC (RADAR)
Mon 04:40:38 AM -35.0133 149.5034 44° Northeast 171 197 6,900 86 Level Aus ATC (RADAR)
Mon 04:41:03 AM -34.9987 149.5209 45° Northeast 175 201 7,000 -100 Climbing Aus ATC (RADAR)
Mon 04:41:38 AM -34.9781 149.5453 44° Northeast 175 201 6,800 -75 Descending Aus ATC (RADAR)
Mon 04:42:23 AM -34.9521 149.5772 45° Northeast 176 203 6,900 75 Climbing Aus ATC (RADAR)
Mon 04:42:58 AM -34.9317 149.6022 45° Northeast 177 204 6,900 63 Level Aus ATC (RADAR)
Mon 04:43:58 AM -34.8971 149.6448 45° Northeast 173 199 7,000  Climbing Aus ATC (RADAR)
Mon 04:44:23 AM -34.8824 149.6622 44° Northeast 174 200 6,900  Descending Aus ATC (RADAR)
Mon 04:44:48 AM -34.8677 149.6794 44° Northeast 174 200 7,000  Climbing Aus ATC (RADAR)
Mon 04:45:23 AM -34.8475 149.7037 45° Northeast 173 199 6,900 -75 Descending Aus ATC (RADAR)
Mon 04:46:08 AM -34.8217 149.7348 45° Northeast 173 199 6,900  Level Aus ATC (RADAR)
Mon 04:46:43 AM -34.8010 149.7593 44° Northeast 176 203 6,900 -71 Level Aus ATC (RADAR)
Mon 04:47:33 AM -34.7715 149.7936 44° Northeast 174 200 6,800 80 Descending Aus ATC (RADAR)
Mon 04:47:58 AM -34.7573 149.8108 45° Northeast 171 197 7,000 102 Climbing Aus ATC (RADAR)
Mon 04:48:32 AM -34.7366 149.8341 43° Northeast 173 199 6,900 -67 Descending Aus ATC (RADAR)
Mon 04:49:27 AM -34.7036 149.8718 43° Northeast 177 204 6,900  Level Aus ATC (RADAR)
Mon 04:49:52 AM -34.6881 149.8889 42° Northeast 179 206 6,900  Level Aus ATC (RADAR)
Mon 04:50:27 AM -34.6678 149.9145 46° Northeast 178 205 6,900 -75 Level Aus ATC (RADAR)
Mon 04:51:12 AM -34.6409 149.9468 45° Northeast 178 205 6,800 75 Descending Aus ATC (RADAR)
Mon 04:51:47 AM -34.6207 149.9726 46° Northeast 178 205 7,000 75 Climbing Aus ATC (RADAR)
Mon 04:52:32 AM -34.5957 150.0059 48° Northeast 177 204 6,900 -86 Descending Aus ATC (RADAR)
Mon 04:52:57 AM -34.5815 150.0241 46° Northeast 176 203 6,900  Level Aus ATC (RADAR)
Mon 04:53:32 AM -34.5621 150.0497 47° Northeast 174 200 6,900  Level Aus ATC (RADAR)
Mon 04:54:42 AM -34.5230 150.0999 47° Northeast 174 200 6,900  Level Aus ATC (RADAR)
Mon 04:55:07 AM -34.5095 150.1174 47° Northeast 170 196 6,900  Level Aus ATC (RADAR)
Mon 04:55:42 AM -34.4903 150.1405 45° Northeast 166 191 6,900  Level Aus ATC (RADAR)
Mon 04:56:27 AM -34.4653 150.1694 44° Northeast 163 188 6,900  Level Aus ATC (RADAR)
Mon 04:57:02 AM -34.4455 150.1919 43° Northeast 166 191 6,900  Level Aus ATC (RADAR)
Mon 04:57:52 AM -34.4173 150.2238 43° Northeast 164 189 6,900  Level Aus ATC (RADAR)
Mon 04:58:17 AM -34.4037 150.2402 45° Northeast 164 189 6,900  Level Aus ATC (RADAR)
Mon 04:58:51 AM -34.3849 150.2628 45° Northeast 163 188 6,900 135 Level Aus ATC (RADAR)
Mon 04:59:46 AM -34.3541 150.2991 44° Northeast 165 190 7,100  Climbing Aus ATC (RADAR)
Mon 05:00:11 AM -34.3402 150.3152 44° Northeast 164 189 6,900 -290 Descending Aus ATC (RADAR)
Mon 05:00:48 AM -34.3219 150.3381 46° Northeast 161 185 6,800 -357 Descending Aus ATC (RADAR)
Mon 05:01:35 AM -34.2978 150.3709 48° Northeast 170 196 6,400 -444 Descending Aus ATC (RADAR)
Mon 05:02:09 AM -34.2781 150.3961 47° Northeast 173 199 6,200 -439 Descending Aus ATC (RADAR)
Mon 05:02:57 AM -34.2504 150.4315 47° Northeast 173 199 5,800 -411 Descending Aus ATC (RADAR)
Mon 05:03:22 AM -34.2361 150.4489 45° Northeast 172 198 5,700 -400 Descending Aus ATC (RADAR)
Mon 05:03:57 AM -34.2170 150.4730 46° Northeast 169 194 5,400 -447 Descending Aus ATC (RADAR)
Mon 05:04:56 AM -34.1825 150.5145 45° Northeast 172 198 5,000 -429 Descending Aus ATC (RADAR)
Mon 05:05:21 AM -34.1679 150.5318 45° Northeast 173 199 4,800 -492 Descending Aus ATC (RADAR)
Mon 05:05:57 AM -34.1477 150.5562 45° Northeast 173 199 4,500 -375 Descending Aus ATC (RADAR)
Mon 05:06:41 AM -34.1219 150.5877 45° Northeast 173 199 4,300 -456 Descending Aus ATC (RADAR)
Mon 05:07:16 AM -34.1018 150.6128 46° Northeast 174 200 3,900 -686 Descending Aus ATC (RADAR)
Mon 05:07:51 AM -34.0805 150.6376 44° Northeast 178 205 3,500 -686 Descending Aus ATC (RADAR)
Mon 05:08:26 AM -34.0590 150.6623 44° Northeast 179 206 3,100 -600 Descending Aus ATC (RADAR)
Mon 05:09:01 AM -34.0379 150.6866 44° Northeast 177 204 2,800 -675 Descending Aus ATC (RADAR)
Mon 05:09:46 AM -34.0154 150.7240 54° Northeast 179 206 2,200 -640 Descending Aus ATC (RADAR)
Mon 05:10:16 AM -34.0014 150.7489 56° Northeast 177 204 2,000 -469 Descending Aus ATC (RADAR)
Mon 05:10:50 AM -33.9859 150.7778 57° Northeast 173 199 1,700 -405 Descending Aus ATC (RADAR)
Mon 05:11:30 AM -33.9690 150.8102 58° Northeast 167 192 1,500 -320 Descending Aus ATC (RADAR)
Mon 05:12:05 AM -33.9540 150.8377 57° Northeast 165 190 1,300 -171 Descending Aus ATC (RADAR)
Mon 05:12:40 AM -33.9399 150.8642 57° Northeast 158 182 1,300  Level Aus ATC (RADAR)
Mon 05:13:15 AM -33.9269 150.8901 59° Northeast 151 174 1,300 -171 Level Aus ATC (RADAR)
Mon 05:13:50 AM -33.9131 150.9151 56° Northeast 149 171 1,100 -457 Descending Aus ATC (RADAR)
Mon 05:15:00 AM -33.9093 150.9652 85° East 136 157 500 -600 Descending Aus ATC (RADAR)
Mon 05:15:30 AM -33.9184 150.9812 124° Southeast 116 133 100 -800 Descending Aus ATC (RADAR)

Login

Don't have an account? Register now (free) for customized features, flight alerts, and more!